createdAt,value
2018-08-19T00:00:40.837Z,1023.16
2018-08-19T00:02:08.453Z,1023.14
2018-08-19T00:03:36.057Z,1023.13
2018-08-19T00:05:03.629Z,1023.15
2018-08-19T00:06:30.806Z,1023.15
2018-08-19T00:07:59.434Z,1023.21
2018-08-19T00:09:25.700Z,1023.25
2018-08-19T00:10:53.411Z,1023.27
2018-08-19T00:12:20.838Z,1023.24
2018-08-19T00:13:48.207Z,1023.24
2018-08-19T00:15:14.396Z,1023.27
2018-08-19T00:16:40.813Z,1023.30
2018-08-19T00:18:08.247Z,1023.30
2018-08-19T00:19:34.538Z,1023.26
2018-08-19T00:21:02.039Z,1023.32
2018-08-19T00:22:29.454Z,1023.33
2018-08-19T00:23:56.021Z,1023.35
2018-08-19T00:25:22.311Z,1023.35
2018-08-19T00:26:49.801Z,1023.35
2018-08-19T00:28:16.616Z,1023.35
2018-08-19T00:29:44.001Z,1023.37
2018-08-19T00:31:11.503Z,1023.36
2018-08-19T00:32:46.919Z,1023.37
2018-08-19T00:34:06.323Z,1023.38
2018-08-19T00:35:32.463Z,1023.37
2018-08-19T00:36:59.710Z,1023.38
2018-08-19T00:38:27.145Z,1023.38
2018-08-19T00:39:54.602Z,1023.40
2018-08-19T00:41:21.847Z,1023.43
2018-08-19T00:42:47.957Z,1023.45
2018-08-19T00:44:15.509Z,1023.49
2018-08-19T00:45:41.587Z,1023.46
2018-08-19T00:47:09.040Z,1023.47
2018-08-19T00:48:36.567Z,1023.44
2018-08-19T00:50:03.127Z,1023.41
2018-08-19T00:51:30.629Z,1023.39
2018-08-19T00:52:57.928Z,1023.42
2018-08-19T00:54:25.318Z,1023.41
2018-08-19T00:55:52.857Z,1023.44
2018-08-19T00:57:19.857Z,1023.47
2018-08-19T00:58:47.381Z,1023.51
2018-08-19T01:00:14.727Z,1023.53
2018-08-19T01:01:42.293Z,1023.53
2018-08-19T01:03:09.630Z,1023.54
2018-08-19T01:04:37.188Z,1023.51
2018-08-19T01:06:04.526Z,1023.53
2018-08-19T01:07:32.167Z,1023.54
2018-08-19T01:08:59.719Z,1023.56
2018-08-19T01:10:27.147Z,1023.57
2018-08-19T01:11:54.594Z,1023.58
2018-08-19T01:13:20.752Z,1023.56
2018-08-19T01:14:47.072Z,1023.56
2018-08-19T01:16:14.417Z,1023.58
2018-08-19T01:17:42.165Z,1023.60
2018-08-19T01:19:08.337Z,1023.61
2018-08-19T01:20:35.941Z,1023.62
2018-08-19T01:22:02.848Z,1023.60
2018-08-19T01:23:30.187Z,1023.59
2018-08-19T01:24:57.809Z,1023.59
2018-08-19T01:26:24.152Z,1023.63
2018-08-19T01:27:50.775Z,1023.62
2018-08-19T01:29:16.866Z,1023.61
2018-08-19T01:30:44.342Z,1023.56
2018-08-19T01:32:11.645Z,1023.57
2018-08-19T01:33:39.266Z,1023.56
2018-08-19T01:35:05.473Z,1023.56
2018-08-19T01:36:32.880Z,1023.54
2018-08-19T01:37:59.028Z,1023.54
2018-08-19T01:39:25.513Z,1023.52
2018-08-19T01:40:53.075Z,1023.53
2018-08-19T01:42:20.518Z,1023.54
2018-08-19T01:43:47.910Z,1023.57
2018-08-19T01:45:15.443Z,1023.61
2018-08-19T01:46:42.936Z,1023.61
2018-08-19T01:48:10.178Z,1023.59
2018-08-19T01:49:37.554Z,1023.59
2018-08-19T01:51:05.177Z,1023.57
2018-08-19T01:52:31.519Z,1023.57
2018-08-19T01:53:57.997Z,1023.56
2018-08-19T01:55:25.392Z,1023.57
2018-08-19T01:56:52.817Z,1023.55
2018-08-19T01:58:22.544Z,1023.54
2018-08-19T01:59:47.002Z,1023.52
2018-08-19T02:01:14.689Z,1023.52
2018-08-19T02:02:41.978Z,1023.50
2018-08-19T02:04:09.536Z,1023.50
2018-08-19T02:05:36.101Z,1023.49
2018-08-19T02:07:03.816Z,1023.52
2018-08-19T02:08:30.877Z,1023.56
2018-08-19T02:09:58.319Z,1023.59
2018-08-19T02:11:25.510Z,1023.58
2018-08-19T02:12:52.232Z,1023.57
2018-08-19T02:14:19.613Z,1023.55
2018-08-19T02:15:46.932Z,1023.53
2018-08-19T02:17:13.979Z,1023.52
2018-08-19T02:18:40.625Z,1023.53
2018-08-19T02:20:05.658Z,1023.52
2018-08-19T02:21:33.155Z,1023.49
2018-08-19T02:23:00.561Z,1023.47
2018-08-19T02:24:26.796Z,1023.45
2018-08-19T02:25:54.142Z,1023.44
2018-08-19T02:27:21.100Z,1023.48
2018-08-19T02:28:48.516Z,1023.51
2018-08-19T02:30:15.112Z,1023.51
2018-08-19T02:31:42.254Z,1023.52
2018-08-19T02:33:09.841Z,1023.52
2018-08-19T02:34:37.370Z,1023.54
2018-08-19T02:36:04.657Z,1023.50
2018-08-19T02:37:32.068Z,1023.48
2018-08-19T02:38:59.628Z,1023.48
2018-08-19T02:40:26.896Z,1023.47
2018-08-19T02:41:54.437Z,1023.46
2018-08-19T02:43:21.776Z,1023.43
2018-08-19T02:44:49.157Z,1023.43
2018-08-19T02:46:16.552Z,1023.43
2018-08-19T02:47:44.000Z,1023.43
2018-08-19T02:49:11.267Z,1023.45
2018-08-19T02:50:38.964Z,1023.44
2018-08-19T02:52:05.279Z,1023.46
2018-08-19T02:53:32.880Z,1023.44
2018-08-19T02:55:00.398Z,1023.45
2018-08-19T02:56:27.482Z,1023.44
2018-08-19T02:57:55.746Z,1023.40
2018-08-19T02:59:30.281Z,1023.42
2018-08-19T03:00:47.497Z,1023.38
2018-08-19T03:02:14.918Z,1023.39
2018-08-19T03:03:42.424Z,1023.39
2018-08-19T03:05:09.839Z,1023.40
2018-08-19T03:06:35.894Z,1023.39
2018-08-19T03:08:03.204Z,1023.36
2018-08-19T03:09:30.936Z,1023.36
2018-08-19T03:10:58.404Z,1023.35
2018-08-19T03:12:24.975Z,1023.34
2018-08-19T03:13:52.381Z,1023.33
2018-08-19T03:15:19.932Z,1023.35
2018-08-19T03:16:47.330Z,1023.36
2018-08-19T03:18:14.779Z,1023.34
2018-08-19T03:19:42.163Z,1023.30
2018-08-19T03:21:08.547Z,1023.28
2018-08-19T03:22:34.872Z,1023.28
2018-08-19T03:24:01.212Z,1023.29
2018-08-19T03:25:28.596Z,1023.28
2018-08-19T03:26:54.862Z,1023.27
2018-08-19T03:28:22.404Z,1023.26
2018-08-19T03:29:49.669Z,1023.27
2018-08-19T03:31:17.181Z,1023.28
2018-08-19T03:32:44.685Z,1023.29
2018-08-19T03:34:10.670Z,1023.28
2018-08-19T03:35:38.295Z,1023.26
2018-08-19T03:37:05.472Z,1023.26
2018-08-19T03:38:31.677Z,1023.25
2018-08-19T03:39:58.364Z,1023.25
2018-08-19T03:41:25.462Z,1023.26
2018-08-19T03:49:10.762Z,1023.18
2018-08-19T03:54:40.022Z,1023.25
2018-08-19T03:56:06.835Z,1023.28
2018-08-19T03:57:34.088Z,1023.31
2018-08-19T03:59:01.541Z,1023.29
2018-08-19T04:00:28.829Z,1023.28
2018-08-19T04:01:56.314Z,1023.27
2018-08-19T04:03:23.174Z,1023.28
2018-08-19T04:04:49.488Z,1023.30
2018-08-19T04:06:15.904Z,1023.30
2018-08-19T04:07:41.807Z,1023.30
2018-08-19T04:09:09.198Z,1023.27
2018-08-19T04:10:36.736Z,1023.24
2018-08-19T04:12:04.331Z,1023.25
2018-08-19T04:13:31.646Z,1023.26
2018-08-19T04:14:59.100Z,1023.28
2018-08-19T04:16:26.497Z,1023.25
2018-08-19T04:17:53.943Z,1023.24
2018-08-19T04:19:21.306Z,1023.21
2018-08-19T04:20:48.764Z,1023.21
2018-08-19T04:22:15.088Z,1023.20
2018-08-19T04:23:42.612Z,1023.22
2018-08-19T04:25:10.313Z,1023.21
2018-08-19T04:26:36.885Z,1023.21
2018-08-19T04:28:03.324Z,1023.19
2018-08-19T04:29:29.398Z,1023.21
2018-08-19T04:30:56.699Z,1023.19
2018-08-19T04:32:27.142Z,1023.17
2018-08-19T04:33:51.582Z,1023.17
2018-08-19T04:35:19.057Z,1023.17
2018-08-19T04:38:52.488Z,1023.15
2018-08-19T04:50:29.679Z,1023.12
2018-08-19T04:51:55.424Z,1023.13
2018-08-19T04:53:22.820Z,1023.10
2018-08-19T04:54:49.442Z,1023.12
2018-08-19T04:56:15.544Z,1023.12
2018-08-19T04:57:42.949Z,1023.12
2018-08-19T04:59:09.393Z,1023.12
2018-08-19T05:00:36.842Z,1023.15
2018-08-19T05:02:03.120Z,1023.14
2018-08-19T05:03:30.190Z,1023.13
2018-08-19T05:05:55.806Z,1023.15
2018-08-19T05:07:21.965Z,1023.16
2018-08-19T05:10:26.017Z,1023.18
2018-08-19T05:12:01.328Z,1023.20
2018-08-19T05:13:28.610Z,1023.18
2018-08-19T05:14:55.464Z,1023.15
2018-08-19T05:16:22.893Z,1023.12
2018-08-19T05:17:49.862Z,1023.15
2018-08-19T05:19:17.212Z,1023.15
2018-08-19T05:20:44.927Z,1023.15
2018-08-19T05:22:12.303Z,1023.15
2018-08-19T05:23:47.807Z,1023.15
2018-08-19T05:25:15.505Z,1023.17
2018-08-19T05:26:34.687Z,1023.17
2018-08-19T05:28:01.056Z,1023.16
2018-08-19T05:29:28.431Z,1023.16
2018-08-19T05:30:54.795Z,1023.16
2018-08-19T05:32:29.756Z,1023.15
2018-08-19T05:33:48.295Z,1023.17
2018-08-19T05:35:14.705Z,1023.17
2018-08-19T05:36:41.817Z,1023.16
2018-08-19T05:38:09.145Z,1023.15
2018-08-19T05:39:36.540Z,1023.16
2018-08-19T05:41:03.963Z,1023.17
2018-08-19T05:42:30.340Z,1023.20
2018-08-19T05:43:57.652Z,1023.20
2018-08-19T05:45:24.247Z,1023.20
2018-08-19T05:46:51.085Z,1023.17
2018-08-19T05:48:18.327Z,1023.14
2018-08-19T05:49:46.262Z,1023.18
2018-08-19T05:51:12.395Z,1023.18
2018-08-19T05:52:40.012Z,1023.17
2018-08-19T05:54:07.566Z,1023.19
2018-08-19T05:55:34.952Z,1023.16
2018-08-19T05:57:02.462Z,1023.13
2018-08-19T05:58:29.864Z,1023.16
2018-08-19T05:59:57.160Z,1023.14
2018-08-19T06:01:24.747Z,1023.15
2018-08-19T06:02:52.258Z,1023.16
2018-08-19T06:04:19.512Z,1023.16
2018-08-19T06:05:47.200Z,1023.19
2018-08-19T06:07:14.562Z,1023.20
2018-08-19T06:08:42.978Z,1023.20
2018-08-19T06:10:08.040Z,1023.22
2018-08-19T06:11:35.719Z,1023.21
2018-08-19T06:13:02.924Z,1023.24
2018-08-19T06:14:30.498Z,1023.24
2018-08-19T06:15:58.033Z,1023.26
2018-08-19T06:17:25.628Z,1023.29
2018-08-19T06:18:52.925Z,1023.30
2018-08-19T06:20:21.376Z,1023.32
2018-08-19T06:21:47.088Z,1023.34
2018-08-19T06:23:14.670Z,1023.34
2018-08-19T06:24:41.486Z,1023.36
2018-08-19T06:26:08.946Z,1023.35
2018-08-19T06:27:36.365Z,1023.34
2018-08-19T06:29:02.932Z,1023.34
2018-08-19T06:30:30.326Z,1023.33
2018-08-19T06:31:58.107Z,1023.34
2018-08-19T06:33:25.595Z,1023.33
2018-08-19T06:34:52.406Z,1023.34
2018-08-19T06:36:19.423Z,1023.34
2018-08-19T06:37:47.052Z,1023.34
2018-08-19T06:39:13.594Z,1023.32
2018-08-19T06:40:41.015Z,1023.32
2018-08-19T06:42:08.640Z,1023.31
2018-08-19T06:43:36.216Z,1023.32
2018-08-19T06:45:04.746Z,1023.32
2018-08-19T06:46:31.195Z,1023.30
2018-08-19T06:47:58.701Z,1023.31
2018-08-19T06:49:25.863Z,1023.33
2018-08-19T06:50:53.489Z,1023.31
2018-08-19T06:52:20.859Z,1023.28
2018-08-19T06:53:48.465Z,1023.29
2018-08-19T06:55:14.511Z,1023.32
2018-08-19T06:56:40.832Z,1023.30
2018-08-19T06:58:08.261Z,1023.26
2018-08-19T06:59:34.058Z,1023.26
2018-08-19T07:01:01.508Z,1023.23
2018-08-19T07:02:29.120Z,1023.22
2018-08-19T07:03:56.708Z,1023.23
2018-08-19T07:05:23.186Z,1023.23
2018-08-19T07:06:50.691Z,1023.20
2018-08-19T07:08:18.166Z,1023.21
2018-08-19T07:09:45.846Z,1023.20
2018-08-19T07:11:12.312Z,1023.22
2018-08-19T07:12:39.679Z,1023.21
2018-08-19T07:14:07.051Z,1023.22
2018-08-19T07:15:34.556Z,1023.23
2018-08-19T07:17:01.927Z,1023.22
2018-08-19T07:18:28.551Z,1023.25
2018-08-19T07:19:56.092Z,1023.24
2018-08-19T07:21:22.872Z,1023.23
2018-08-19T07:22:49.796Z,1023.23
2018-08-19T07:24:17.321Z,1023.24
2018-08-19T07:25:44.226Z,1023.24
2018-08-19T07:27:11.675Z,1023.22
2018-08-19T07:28:39.286Z,1023.19
2018-08-19T07:30:06.883Z,1023.19
2018-08-19T07:31:33.588Z,1023.20
2018-08-19T07:32:59.847Z,1023.21
2018-08-19T07:34:27.273Z,1023.21
2018-08-19T07:35:54.457Z,1023.22
2018-08-19T07:37:20.905Z,1023.23
2018-08-19T07:38:47.447Z,1023.20
2018-08-19T07:40:13.744Z,1023.18
2018-08-19T07:41:41.241Z,1023.14
2018-08-19T07:43:08.077Z,1023.18
2018-08-19T07:44:35.733Z,1023.17
2018-08-19T07:46:01.680Z,1023.13
2018-08-19T07:47:29.242Z,1023.13
2018-08-19T07:48:56.747Z,1023.09
2018-08-19T07:50:24.488Z,1023.11
2018-08-19T07:51:51.407Z,1023.10
2018-08-19T07:53:18.622Z,1023.12
2018-08-19T07:54:46.160Z,1023.11
2018-08-19T07:56:13.872Z,1023.12
2018-08-19T07:57:41.524Z,1023.10
2018-08-19T07:59:09.187Z,1023.11
2018-08-19T08:00:36.672Z,1023.12
2018-08-19T08:02:04.256Z,1023.14
2018-08-19T08:03:31.646Z,1023.12
2018-08-19T08:04:59.312Z,1023.10
2018-08-19T08:06:26.826Z,1023.09
2018-08-19T08:07:54.208Z,1023.12
2018-08-19T08:09:21.718Z,1023.06
2018-08-19T08:10:49.365Z,1023.10
2018-08-19T08:12:17.906Z,1023.04
2018-08-19T08:13:43.579Z,1023.06
2018-08-19T08:15:10.385Z,1023.02
2018-08-19T08:16:38.099Z,1023.01
2018-08-19T08:18:04.662Z,1022.98
2018-08-19T08:19:32.183Z,1022.96
2018-08-19T08:20:59.836Z,1022.94
2018-08-19T08:22:27.060Z,1022.98
2018-08-19T08:23:54.612Z,1022.96
2018-08-19T08:25:22.255Z,1022.94
2018-08-19T08:26:49.148Z,1022.92
2018-08-19T08:28:16.896Z,1022.89
2018-08-19T08:29:42.978Z,1022.86
2018-08-19T08:31:10.601Z,1022.85
2018-08-19T08:32:38.066Z,1022.82
2018-08-19T08:34:05.791Z,1022.83
2018-08-19T08:35:32.422Z,1022.80
2018-08-19T08:36:59.685Z,1022.85
2018-08-19T08:38:26.311Z,1022.85
2018-08-19T08:39:53.148Z,1022.83
2018-08-19T08:41:20.673Z,1022.81
2018-08-19T08:42:48.252Z,1022.80
2018-08-19T08:44:15.759Z,1022.80
2018-08-19T08:45:43.266Z,1022.85
2018-08-19T08:47:11.012Z,1022.81
2018-08-19T08:48:38.723Z,1022.77
2018-08-19T08:50:06.232Z,1022.80
2018-08-19T08:51:33.320Z,1022.80
2018-08-19T08:52:59.998Z,1022.81
2018-08-19T08:54:27.353Z,1022.80
2018-08-19T08:55:54.836Z,1022.80
2018-08-19T08:57:22.225Z,1022.77
2018-08-19T08:58:49.480Z,1022.76
2018-08-19T09:00:17.057Z,1022.72
2018-08-19T09:01:44.422Z,1022.65
2018-08-19T09:03:12.109Z,1022.67
2018-08-19T09:04:39.456Z,1022.71
2018-08-19T09:06:07.064Z,1022.76
2018-08-19T09:07:34.687Z,1022.75
2018-08-19T09:09:02.164Z,1022.75
2018-08-19T09:10:29.722Z,1022.75
2018-08-19T09:11:57.371Z,1022.74
2018-08-19T09:13:24.937Z,1022.75
2018-08-19T09:14:53.187Z,1022.75
2018-08-19T09:16:19.916Z,1022.72
2018-08-19T09:17:47.423Z,1022.74
2018-08-19T09:19:14.970Z,1022.72
2018-08-19T09:20:42.314Z,1022.71
2018-08-19T09:22:09.970Z,1022.67
2018-08-19T09:23:37.510Z,1022.71
2018-08-19T09:25:04.442Z,1022.69
2018-08-19T09:26:32.076Z,1022.70
2018-08-19T09:27:59.238Z,1022.64
2018-08-19T09:29:26.298Z,1022.63
2018-08-19T09:30:53.964Z,1022.63
2018-08-19T09:32:21.083Z,1022.62
2018-08-19T09:33:48.842Z,1022.61
2018-08-19T09:35:16.470Z,1022.61
2018-08-19T09:36:43.937Z,1022.60
2018-08-19T09:38:11.378Z,1022.60
2018-08-19T09:39:39.040Z,1022.63
2018-08-19T09:41:05.922Z,1022.57
2018-08-19T09:42:33.546Z,1022.56
2018-08-19T09:44:01.232Z,1022.57
2018-08-19T09:45:28.649Z,1022.55
2018-08-19T09:46:56.124Z,1022.58
2018-08-19T09:48:23.766Z,1022.55
2018-08-19T09:49:50.153Z,1022.49
2018-08-19T09:51:17.520Z,1022.46
2018-08-19T09:52:44.131Z,1022.46
2018-08-19T09:54:11.687Z,1022.42
2018-08-19T09:55:39.255Z,1022.41
2018-08-19T09:57:06.817Z,1022.41
2018-08-19T09:58:34.357Z,1022.37
2018-08-19T10:00:01.949Z,1022.36
2018-08-19T10:01:28.747Z,1022.41
2018-08-19T10:02:56.229Z,1022.40
2018-08-19T10:04:23.832Z,1022.37
2018-08-19T10:05:50.803Z,1022.36
2018-08-19T10:07:17.897Z,1022.41
2018-08-19T10:08:45.366Z,1022.41
2018-08-19T10:10:13.041Z,1022.36
2018-08-19T10:11:48.469Z,1022.36
2018-08-19T10:13:07.840Z,1022.39
2018-08-19T10:14:35.508Z,1022.36
2018-08-19T10:16:02.462Z,1022.33
2018-08-19T10:17:29.237Z,1022.34
2018-08-19T10:18:56.771Z,1022.31
2018-08-19T10:20:23.420Z,1022.27
2018-08-19T10:21:50.385Z,1022.30
2018-08-19T10:23:17.140Z,1022.33
2018-08-19T10:24:44.518Z,1022.26
2018-08-19T10:26:12.169Z,1022.30
2018-08-19T10:27:39.885Z,1022.27
2018-08-19T10:29:07.490Z,1022.24
2018-08-19T10:30:35.165Z,1022.23
2018-08-19T10:32:02.323Z,1022.20
2018-08-19T10:33:29.954Z,1022.21
2018-08-19T10:34:57.598Z,1022.21
2018-08-19T10:36:25.030Z,1022.14
2018-08-19T10:37:52.639Z,1022.13
2018-08-19T10:39:19.283Z,1022.12
2018-08-19T10:40:46.835Z,1022.13
2018-08-19T10:42:14.437Z,1022.15
2018-08-19T10:43:42.038Z,1022.16
2018-08-19T10:45:09.643Z,1022.16
2018-08-19T10:46:37.529Z,1022.09
2018-08-19T10:48:05.200Z,1022.06
2018-08-19T10:49:32.663Z,1022.09
2018-08-19T10:51:00.322Z,1022.15
2018-08-19T10:52:26.918Z,1022.13
2018-08-19T10:53:54.384Z,1022.11
2018-08-19T10:55:21.402Z,1022.08
2018-08-19T10:56:48.825Z,1022.08
2018-08-19T10:58:15.458Z,1022.11
2018-08-19T10:59:43.162Z,1022.09
2018-08-19T11:01:10.608Z,1022.09
2018-08-19T11:02:38.296Z,1022.07
2018-08-19T11:04:05.736Z,1022.12
2018-08-19T11:05:33.269Z,1022.09
2018-08-19T11:07:00.862Z,1022.12
2018-08-19T11:08:28.566Z,1022.13
2018-08-19T11:09:54.995Z,1022.09
2018-08-19T11:11:22.414Z,1022.10
2018-08-19T11:12:50.069Z,1022.10
2018-08-19T11:14:17.741Z,1022.09
2018-08-19T11:15:44.708Z,1022.12
2018-08-19T11:17:12.285Z,1022.08
2018-08-19T11:18:39.037Z,1022.09
2018-08-19T11:20:06.681Z,1022.06
2018-08-19T11:21:34.370Z,1022.06
2018-08-19T11:23:01.845Z,1022.06
2018-08-19T11:24:29.465Z,1022.03
2018-08-19T11:25:56.954Z,1022.02
2018-08-19T11:27:24.459Z,1022.01
2018-08-19T11:28:51.904Z,1021.95
2018-08-19T11:30:19.361Z,1021.94
2018-08-19T11:31:47.024Z,1021.89
2018-08-19T11:33:13.220Z,1021.90
2018-08-19T11:34:40.955Z,1021.88
2018-08-19T11:36:08.592Z,1021.91
2018-08-19T11:37:36.219Z,1021.88
2018-08-19T11:39:03.791Z,1021.84
2018-08-19T11:40:31.396Z,1021.81
2018-08-19T11:41:59.057Z,1021.79
2018-08-19T11:43:26.561Z,1021.75
2018-08-19T11:44:54.094Z,1021.78
2018-08-19T11:46:21.489Z,1021.70
2018-08-19T11:47:49.146Z,1021.69
2018-08-19T11:49:16.713Z,1021.64
2018-08-19T11:50:44.098Z,1021.61
2018-08-19T11:52:08.430Z,1021.59
2018-08-19T11:53:39.145Z,1021.49
2018-08-19T11:55:06.261Z,1021.49
2018-08-19T11:56:32.969Z,1021.47
2018-08-19T11:58:00.569Z,1021.47
2018-08-19T11:59:27.527Z,1021.45
2018-08-19T12:00:55.085Z,1021.42
2018-08-19T12:02:22.307Z,1021.37
2018-08-19T12:03:49.901Z,1021.33
2018-08-19T12:05:17.619Z,1021.30
2018-08-19T12:06:45.328Z,1021.32
2018-08-19T12:08:12.883Z,1021.23
2018-08-19T12:09:40.481Z,1021.26
2018-08-19T12:11:08.044Z,1021.24
2018-08-19T12:12:35.679Z,1021.20
2018-08-19T12:14:03.319Z,1021.21
2018-08-19T12:15:30.933Z,1021.22
2018-08-19T12:16:58.510Z,1021.22
2018-08-19T12:18:25.346Z,1021.19
2018-08-19T12:19:52.952Z,1021.18
2018-08-19T12:21:20.370Z,1021.18
2018-08-19T12:22:47.863Z,1021.16
2018-08-19T12:24:15.666Z,1021.12
2018-08-19T12:25:42.429Z,1021.13
2018-08-19T12:27:10.095Z,1021.13
2018-08-19T12:28:37.867Z,1021.09
2018-08-19T12:30:04.315Z,1021.08
2018-08-19T12:31:31.893Z,1021.04
2018-08-19T12:32:59.651Z,1020.94
2018-08-19T12:34:27.238Z,1020.97
2018-08-19T12:35:54.865Z,1020.99
2018-08-19T12:37:22.417Z,1020.94
2018-08-19T12:38:49.942Z,1020.88
2018-08-19T12:40:17.552Z,1020.82
2018-08-19T12:41:45.091Z,1020.80
2018-08-19T12:43:12.842Z,1020.76
2018-08-19T12:44:39.380Z,1020.75
2018-08-19T12:46:07.069Z,1020.70
2018-08-19T12:47:34.620Z,1020.71
2018-08-19T12:49:02.402Z,1020.69
2018-08-19T12:50:30.060Z,1020.67
2018-08-19T12:51:57.634Z,1020.74
2018-08-19T12:53:25.419Z,1020.62
2018-08-19T12:54:52.707Z,1020.63
2018-08-19T12:56:20.330Z,1020.64
2018-08-19T12:57:48.063Z,1020.64
2018-08-19T12:59:15.701Z,1020.61
2018-08-19T13:00:43.302Z,1020.62
2018-08-19T13:02:10.253Z,1020.54
2018-08-19T13:03:37.931Z,1020.52
2018-08-19T13:05:05.677Z,1020.53
2018-08-19T13:06:33.232Z,1020.47
2018-08-19T13:08:00.689Z,1020.48
2018-08-19T13:09:27.827Z,1020.49
2018-08-19T13:10:55.351Z,1020.46
2018-08-19T13:12:22.666Z,1020.42
2018-08-19T13:13:49.662Z,1020.39
2018-08-19T13:15:16.714Z,1020.38
2018-08-19T13:16:44.595Z,1020.38
2018-08-19T13:18:12.217Z,1020.34
2018-08-19T13:19:39.251Z,1020.27
2018-08-19T13:21:06.971Z,1020.29
2018-08-19T13:22:33.808Z,1020.25
2018-08-19T13:24:01.361Z,1020.22
2018-08-19T13:25:28.898Z,1020.25
2018-08-19T13:26:56.486Z,1020.22
2018-08-19T13:28:24.121Z,1020.18
2018-08-19T13:29:51.502Z,1020.18
2018-08-19T13:31:19.033Z,1020.17
2018-08-19T13:32:46.725Z,1020.17
2018-08-19T13:34:14.469Z,1020.12
2018-08-19T13:35:42.161Z,1020.11
2018-08-19T13:37:09.994Z,1020.07
2018-08-19T13:38:36.802Z,1020.05
2018-08-19T13:40:04.370Z,1020.05
2018-08-19T13:41:31.052Z,1020.01
2018-08-19T13:42:58.561Z,1019.98
2018-08-19T13:44:26.263Z,1019.92
2018-08-19T13:45:53.637Z,1019.86
2018-08-19T13:47:20.998Z,1019.81
2018-08-19T13:48:48.114Z,1019.79
2018-08-19T13:50:15.736Z,1019.83
2018-08-19T13:51:43.388Z,1019.82
2018-08-19T13:53:11.179Z,1019.83
2018-08-19T13:54:38.793Z,1019.78
2018-08-19T13:56:06.464Z,1019.78
2018-08-19T13:57:33.187Z,1019.82
2018-08-19T13:59:00.759Z,1019.76
2018-08-19T14:00:28.415Z,1019.76
2018-08-19T14:01:55.209Z,1019.72
2018-08-19T14:03:22.394Z,1019.67
2018-08-19T14:04:49.936Z,1019.66
2018-08-19T14:06:17.572Z,1019.63
2018-08-19T14:07:44.501Z,1019.58
2018-08-19T14:09:11.037Z,1019.58
2018-08-19T14:10:38.752Z,1019.59
2018-08-19T14:12:05.487Z,1019.53
2018-08-19T14:13:33.040Z,1019.54
2018-08-19T14:15:00.634Z,1019.52
2018-08-19T14:16:27.685Z,1019.50
2018-08-19T14:17:55.165Z,1019.49
2018-08-19T14:19:22.958Z,1019.48
2018-08-19T14:20:50.610Z,1019.47
2018-08-19T14:22:17.263Z,1019.46
2018-08-19T14:23:43.959Z,1019.41
2018-08-19T14:25:11.724Z,1019.43
2018-08-19T14:26:39.318Z,1019.36
2018-08-19T14:28:06.947Z,1019.35
2018-08-19T14:29:34.496Z,1019.37
2018-08-19T14:31:01.932Z,1019.38
2018-08-19T14:32:29.687Z,1019.35
2018-08-19T14:33:57.131Z,1019.35
2018-08-19T14:35:24.489Z,1019.34
2018-08-19T14:36:52.208Z,1019.32
2018-08-19T14:38:19.556Z,1019.31
2018-08-19T14:39:46.504Z,1019.27
2018-08-19T14:41:13.539Z,1019.25
2018-08-19T14:42:41.253Z,1019.23
2018-08-19T14:44:08.049Z,1019.21
2018-08-19T14:45:35.760Z,1019.18
2018-08-19T14:47:02.071Z,1019.10
2018-08-19T14:48:29.706Z,1019.14
2018-08-19T14:49:57.398Z,1019.13
2018-08-19T14:51:24.494Z,1019.09
2018-08-19T14:52:51.788Z,1019.07
2018-08-19T14:54:19.101Z,1019.05
2018-08-19T14:55:46.722Z,1019.06
2018-08-19T14:57:14.459Z,1019.04
2018-08-19T14:58:41.138Z,1019.03
2018-08-19T15:00:08.746Z,1019.00
2018-08-19T15:01:35.335Z,1018.98
2018-08-19T15:03:01.963Z,1018.98
2018-08-19T15:04:29.506Z,1018.95
2018-08-19T15:05:57.284Z,1018.92
2018-08-19T15:07:24.770Z,1018.90
2018-08-19T15:08:52.081Z,1018.89
2018-08-19T15:10:19.019Z,1018.87
2018-08-19T15:11:46.692Z,1018.91
2018-08-19T15:13:14.316Z,1018.89
2018-08-19T15:14:41.173Z,1018.86
2018-08-19T15:16:09.021Z,1018.87
2018-08-19T15:17:36.501Z,1018.85
2018-08-19T15:19:03.293Z,1018.82
2018-08-19T15:20:29.961Z,1018.80
2018-08-19T15:21:56.667Z,1018.77
2018-08-19T15:23:24.263Z,1018.73
2018-08-19T15:24:51.932Z,1018.72
2018-08-19T15:26:19.366Z,1018.73
2018-08-19T15:27:46.106Z,1018.70
2018-08-19T15:29:13.461Z,1018.69
2018-08-19T15:30:40.487Z,1018.66
2018-08-19T15:32:08.355Z,1018.64
2018-08-19T15:33:35.913Z,1018.63
2018-08-19T15:35:02.447Z,1018.62
2018-08-19T15:36:30.118Z,1018.60
2018-08-19T15:37:57.738Z,1018.55
2018-08-19T15:39:25.300Z,1018.59
2018-08-19T15:40:51.959Z,1018.55
2018-08-19T15:42:19.268Z,1018.52
2018-08-19T15:43:47.004Z,1018.51
2018-08-19T15:45:14.740Z,1018.50
2018-08-19T15:46:42.386Z,1018.51
2018-08-19T15:48:10.169Z,1018.49
2018-08-19T15:49:37.840Z,1018.50
2018-08-19T15:51:05.468Z,1018.50
2018-08-19T15:52:32.169Z,1018.49
2018-08-19T15:53:59.064Z,1018.45
2018-08-19T15:55:26.069Z,1018.41
2018-08-19T15:56:53.778Z,1018.37
2018-08-19T15:58:21.386Z,1018.39
2018-08-19T15:59:48.942Z,1018.38
2018-08-19T16:01:16.446Z,1018.39
2018-08-19T16:02:44.117Z,1018.38
2018-08-19T16:04:11.637Z,1018.36
2018-08-19T16:05:39.476Z,1018.36
2018-08-19T16:07:07.241Z,1018.36
2018-08-19T16:08:34.863Z,1018.40
2018-08-19T16:10:01.633Z,1018.37
2018-08-19T16:11:29.155Z,1018.36
2018-08-19T16:12:56.047Z,1018.37
2018-08-19T16:14:23.603Z,1018.36
2018-08-19T16:15:50.866Z,1018.34
2018-08-19T16:17:18.467Z,1018.31
2018-08-19T16:18:46.203Z,1018.27
2018-08-19T16:20:13.729Z,1018.23
2018-08-19T16:21:41.356Z,1018.24
2018-08-19T16:23:09.089Z,1018.20
2018-08-19T16:24:36.532Z,1018.18
2018-08-19T16:26:04.187Z,1018.17
2018-08-19T16:27:31.813Z,1018.17
2018-08-19T16:28:59.142Z,1018.16
2018-08-19T16:30:26.770Z,1018.17
2018-08-19T16:31:54.551Z,1018.15
2018-08-19T16:33:21.900Z,1018.14
2018-08-19T16:34:49.451Z,1018.11
2018-08-19T16:36:16.566Z,1018.11
2018-08-19T16:37:44.114Z,1018.10
2018-08-19T16:39:11.674Z,1018.08
2018-08-19T16:40:39.192Z,1018.08
2018-08-19T16:42:07.013Z,1018.07
2018-08-19T16:43:34.636Z,1018.08
2018-08-19T16:45:02.333Z,1018.06
2018-08-19T16:46:30.018Z,1018.07
2018-08-19T16:47:57.661Z,1018.07
2018-08-19T16:49:25.185Z,1018.07
2018-08-19T16:50:52.780Z,1018.08
2018-08-19T16:52:20.460Z,1018.06
2018-08-19T16:53:48.055Z,1018.07
2018-08-19T16:55:15.672Z,1018.06
2018-08-19T16:56:43.275Z,1018.05
2018-08-19T16:58:11.039Z,1018.03
2018-08-19T16:59:37.934Z,1018.02
2018-08-19T17:01:05.607Z,1018.02
2018-08-19T17:02:33.164Z,1018.02
2018-08-19T17:04:00.348Z,1018.01
2018-08-19T17:05:28.002Z,1017.97
2018-08-19T17:06:55.533Z,1017.96
2018-08-19T17:08:22.986Z,1017.92
2018-08-19T17:09:50.723Z,1017.92
2018-08-19T17:11:18.362Z,1017.90
2018-08-19T17:12:45.939Z,1017.92
2018-08-19T17:14:13.577Z,1017.92
2018-08-19T17:15:40.802Z,1017.93
2018-08-19T17:17:07.944Z,1017.94
2018-08-19T17:18:35.592Z,1017.94
2018-08-19T17:20:03.252Z,1017.94
2018-08-19T17:21:30.827Z,1017.91
2018-08-19T17:22:58.321Z,1017.91
2018-08-19T17:24:26.069Z,1017.88
2018-08-19T17:25:53.424Z,1017.87
2018-08-19T17:27:20.799Z,1017.86
2018-08-19T17:28:48.498Z,1017.84
2018-08-19T17:30:16.109Z,1017.85
2018-08-19T17:31:43.822Z,1017.86
2018-08-19T17:33:11.524Z,1017.85
2018-08-19T17:34:39.059Z,1017.86
2018-08-19T17:36:06.626Z,1017.88
2018-08-19T17:37:34.264Z,1017.88
2018-08-19T17:39:01.870Z,1017.91
2018-08-19T17:40:29.495Z,1017.89
2018-08-19T17:41:56.593Z,1017.87
2018-08-19T17:43:24.127Z,1017.85
2018-08-19T17:44:51.638Z,1017.84
2018-08-19T17:46:18.999Z,1017.84
2018-08-19T17:47:46.815Z,1017.82
2018-08-19T17:49:14.471Z,1017.84
2018-08-19T17:50:45.076Z,1017.83
2018-08-19T17:52:09.710Z,1017.85
2018-08-19T17:53:36.965Z,1017.88
2018-08-19T17:55:04.624Z,1017.92
2018-08-19T17:56:32.259Z,1017.93
2018-08-19T17:57:59.730Z,1017.92
2018-08-19T17:59:27.400Z,1017.94
2018-08-19T18:00:54.505Z,1017.93